createdAt,value
2019-01-05T00:02:43.589Z,97550.56
2019-01-05T00:05:31.107Z,97559.68
2019-01-05T00:08:18.735Z,97548.97
2019-01-05T00:11:06.261Z,97556.38
2019-01-05T00:13:53.905Z,97549.50
2019-01-05T00:17:02.210Z,97551.17
2019-01-05T00:19:49.930Z,97539.09
2019-01-05T00:25:45.746Z,97542.84
2019-01-05T00:28:54.067Z,97539.00
2019-01-05T00:31:41.759Z,97533.43
2019-01-05T00:34:50.084Z,97537.41
2019-01-05T00:40:32.936Z,97539.38
2019-01-05T00:46:28.824Z,97531.81
2019-01-05T00:49:37.140Z,97540.09
2019-01-05T00:52:24.746Z,97526.67
2019-01-05T00:55:33.069Z,97531.88
2019-01-05T00:58:20.822Z,97529.67
2019-01-05T01:04:16.570Z,97540.86
2019-01-05T01:07:04.162Z,97530.44
2019-01-05T01:12:27.086Z,97515.59
2019-01-05T01:21:19.226Z,97502.33
2019-01-05T01:27:14.894Z,97512.53
2019-01-05T01:33:31.558Z,97528.05
2019-01-05T01:36:19.215Z,97514.13
2019-01-05T01:39:27.786Z,97523.61
2019-01-05T01:42:15.377Z,97525.23
2019-01-05T01:45:23.781Z,97526.14
2019-01-05T01:48:32.072Z,97514.42
2019-01-05T01:57:29.923Z,97494.35
2019-01-05T02:00:38.235Z,97503.00
2019-01-05T02:03:46.808Z,97492.75
2019-01-05T02:06:55.153Z,97486.61
2019-01-05T02:10:03.511Z,97487.91
2019-01-05T02:13:11.825Z,97496.05
2019-01-05T02:16:20.163Z,97491.81
2019-01-05T02:19:28.532Z,97487.55
2019-01-05T02:22:54.770Z,97478.50
2019-01-05T02:26:20.883Z,97480.27
2019-01-05T02:29:29.362Z,97481.58
2019-01-05T02:32:37.737Z,97468.48
2019-01-05T02:36:03.892Z,97469.61
2019-01-05T02:39:30.135Z,97458.58
2019-01-05T02:42:56.404Z,97455.51
2019-01-05T02:46:05.041Z,97458.98
2019-01-05T02:52:30.271Z,97439.98
2019-01-05T02:55:38.619Z,97433.01
2019-01-05T02:58:47.051Z,97424.73
2019-01-05T03:05:26.063Z,97421.04
2019-01-05T03:12:22.813Z,97415.83
2019-01-05T03:15:31.449Z,97415.54
2019-01-05T03:18:57.940Z,97403.97
2019-01-05T03:25:36.668Z,97379.41
2019-01-05T03:28:45.043Z,97385.73
2019-01-05T03:31:54.047Z,97371.73
2019-01-05T03:35:02.426Z,97375.17
2019-01-05T03:38:28.711Z,97355.56
2019-01-05T03:41:37.084Z,97348.52
2019-01-05T03:48:02.619Z,97341.81
2019-01-05T03:51:28.740Z,97338.52
2019-01-05T03:54:37.398Z,97342.70
2019-01-05T03:58:03.519Z,97337.27
2019-01-05T04:04:46.834Z,97343.44
2019-01-05T04:07:55.138Z,97331.53
2019-01-05T04:11:03.588Z,97329.52
2019-01-05T04:14:29.720Z,97339.79
2019-01-05T04:17:38.200Z,97327.52
2019-01-05T04:20:46.562Z,97320.05
2019-01-05T04:24:12.791Z,97332.09
2019-01-05T04:27:38.909Z,97336.00
2019-01-05T04:31:05.133Z,97320.81
2019-01-05T04:34:13.447Z,97325.74
2019-01-05T04:37:39.603Z,97319.77
2019-01-05T04:40:24.441Z,97322.85
2019-01-05T04:43:33.341Z,97314.56
2019-01-05T04:46:59.462Z,97308.05
2019-01-05T04:50:08.355Z,97310.03
2019-01-05T04:56:47.247Z,97284.33
2019-01-05T04:59:55.874Z,97259.69
2019-01-05T05:03:22.064Z,97258.38
2019-01-05T05:06:30.682Z,97243.58
2019-01-05T05:09:56.907Z,97238.64
2019-01-05T05:13:23.026Z,97236.79
2019-01-05T05:16:49.251Z,97227.03
2019-01-05T05:20:15.373Z,97218.83
2019-01-05T05:23:24.113Z,97221.91
2019-01-05T05:26:32.485Z,97217.52
2019-01-05T05:29:58.709Z,97211.48
2019-01-05T05:33:24.819Z,97214.91
2019-01-05T05:36:51.044Z,97207.56
2019-01-05T05:40:17.166Z,97203.74
2019-01-05T05:46:45.871Z,97200.39
2019-01-05T05:49:54.520Z,97205.98
2019-01-05T05:53:20.848Z,97218.08
2019-01-05T05:56:46.969Z,97238.84
2019-01-05T05:59:55.379Z,97237.54
2019-01-05T06:03:21.495Z,97243.58
2019-01-05T06:06:47.813Z,97233.16
2019-01-05T06:10:13.927Z,97240.62
2019-01-05T06:16:42.988Z,97234.27
2019-01-05T06:20:09.107Z,97246.73
2019-01-05T06:23:17.531Z,97245.23
2019-01-05T06:26:26.185Z,97253.60
2019-01-05T06:29:34.923Z,97246.70
2019-01-05T06:32:43.557Z,97254.52
2019-01-05T06:35:51.999Z,97251.16
2019-01-05T06:39:00.313Z,97257.12
2019-01-05T06:42:00.255Z,97261.42
2019-01-05T06:45:26.381Z,97244.92
2019-01-05T06:48:34.901Z,97242.79
2019-01-05T06:52:01.036Z,97246.62
2019-01-05T06:55:09.452Z,97241.02
2019-01-05T06:58:35.571Z,97246.77
2019-01-05T07:01:44.271Z,97236.16
2019-01-05T07:04:52.905Z,97237.26
2019-01-05T07:08:01.253Z,97232.05
2019-01-05T07:11:27.421Z,97233.42
2019-01-05T07:14:53.565Z,97225.34
2019-01-05T07:21:50.140Z,97219.72
2019-01-05T07:24:58.486Z,97212.27
2019-01-05T07:28:24.661Z,97213.57
2019-01-05T07:31:33.027Z,97223.52
2019-01-05T07:34:41.698Z,97214.88
2019-01-05T07:38:07.821Z,97215.42
2019-01-05T07:41:34.052Z,97213.45
2019-01-05T07:45:00.242Z,97207.48
2019-01-05T07:48:26.637Z,97204.41
2019-01-05T07:51:52.754Z,97198.22
2019-01-05T07:55:18.977Z,97183.62
2019-01-05T07:58:45.103Z,97193.41
2019-01-05T08:01:53.848Z,97190.72
2019-01-05T08:05:19.966Z,97187.38
2019-01-05T08:08:28.378Z,97194.27
2019-01-05T08:11:54.493Z,97180.14
2019-01-05T08:15:20.669Z,97166.48
2019-01-05T08:18:29.305Z,97170.75
2019-01-05T08:21:55.680Z,97159.97
2019-01-05T08:25:21.807Z,97150.69
2019-01-05T08:32:04.891Z,97144.45
2019-01-05T08:35:13.212Z,97147.88
2019-01-05T08:41:38.369Z,97149.27
2019-01-05T08:44:47.051Z,97146.11
2019-01-05T08:48:13.189Z,97135.05
2019-01-05T08:51:39.311Z,97133.50
2019-01-05T08:54:47.729Z,97137.39
2019-01-05T08:57:56.097Z,97139.92
2019-01-05T09:01:04.483Z,97139.00
2019-01-05T09:04:30.612Z,97132.48
2019-01-05T09:07:38.972Z,97131.94
2019-01-05T09:11:05.099Z,97143.10
2019-01-05T09:17:27.938Z,97125.80
2019-01-05T09:20:36.463Z,97109.42
2019-01-05T09:30:36.135Z,97096.11
2019-01-05T09:34:02.252Z,97093.59
2019-01-05T09:37:10.781Z,97100.47
2019-01-05T09:40:19.410Z,97096.38
2019-01-05T09:43:45.801Z,97090.52
2019-01-05T09:47:11.943Z,97086.22
2019-01-05T09:50:20.831Z,97081.48
2019-01-05T09:53:29.152Z,97100.95
2019-01-05T09:56:55.393Z,97096.17
2019-01-05T10:00:21.512Z,97104.00
2019-01-05T10:03:47.665Z,97095.73
2019-01-05T10:06:56.073Z,97081.83
2019-01-05T10:10:04.495Z,97086.05
2019-01-05T10:13:30.612Z,97062.27
2019-01-05T10:16:56.863Z,97048.19
2019-01-05T10:20:05.184Z,97044.02
2019-01-05T10:23:31.553Z,97037.09
2019-01-05T10:26:57.675Z,97034.19
2019-01-05T10:30:06.093Z,97039.48
2019-01-05T10:33:14.463Z,97029.61
2019-01-05T10:36:22.911Z,97019.34
2019-01-05T10:39:31.543Z,97012.80
2019-01-05T10:42:40.223Z,97016.05
2019-01-05T10:45:48.591Z,97023.66
2019-01-05T10:49:14.855Z,97016.09
2019-01-05T10:52:40.980Z,96999.61
2019-01-05T10:56:07.457Z,96999.13
2019-01-05T10:59:15.777Z,96971.27
2019-01-05T11:02:42.089Z,96990.95
2019-01-05T11:06:08.206Z,96977.16
2019-01-05T11:09:16.767Z,96976.33
2019-01-05T11:12:25.139Z,97003.00
2019-01-05T11:15:51.371Z,96971.20
2019-01-05T11:18:59.969Z,96993.65
2019-01-05T11:22:27.676Z,96971.94
2019-01-05T11:29:06.435Z,96982.66
2019-01-05T11:32:32.564Z,96967.95
2019-01-05T11:35:41.205Z,96974.09
2019-01-05T11:39:07.334Z,96965.82
2019-01-05T11:42:33.681Z,96949.78
2019-01-05T11:52:30.946Z,96951.06
2019-01-05T11:59:27.556Z,96943.73
2019-01-05T12:02:35.940Z,96929.77
2019-01-05T12:06:02.142Z,96932.47
2019-01-05T12:09:10.435Z,96937.59
2019-01-05T12:12:36.702Z,96932.38
2019-01-05T12:15:45.076Z,96945.33
2019-01-05T12:18:53.499Z,96935.72
2019-01-05T12:25:32.730Z,96914.84
2019-01-05T12:28:41.048Z,96939.63
2019-01-05T12:32:07.232Z,96917.09
2019-01-05T12:35:15.540Z,96914.10
2019-01-05T12:38:24.178Z,96909.45
2019-01-05T12:41:50.300Z,96909.08
2019-01-05T12:44:58.658Z,96899.36
2019-01-05T12:48:07.082Z,96905.89
2019-01-05T12:51:33.336Z,96904.49
2019-01-05T12:54:59.454Z,96909.27
2019-01-05T12:58:07.887Z,96884.81
2019-01-05T13:04:47.118Z,96916.77
2019-01-05T13:08:13.229Z,96909.30
2019-01-05T13:11:22.143Z,96912.86
2019-01-05T13:14:48.266Z,96919.73
2019-01-05T13:17:56.707Z,96930.56
2019-01-05T13:21:05.074Z,96935.78
2019-01-05T13:24:13.718Z,96932.25
2019-01-05T13:27:39.848Z,96923.20
2019-01-05T13:31:06.081Z,96927.48
2019-01-05T13:34:32.200Z,96934.58
2019-01-05T13:41:00.877Z,96938.48
2019-01-05T13:44:27.004Z,96925.18
2019-01-05T13:47:53.498Z,96924.92
2019-01-05T13:51:01.877Z,96937.50
2019-01-05T13:57:04.910Z,96928.94
2019-01-05T14:02:41.750Z,96927.25
2019-01-05T14:11:01.118Z,96938.42
2019-01-05T14:13:48.638Z,96934.06
2019-01-05T14:19:11.637Z,96916.23
2019-01-05T14:21:59.149Z,96933.20
2019-01-05T14:24:46.806Z,96943.20
2019-01-05T14:27:34.322Z,96961.83
2019-01-05T14:30:22.042Z,96967.43
2019-01-05T14:33:09.562Z,96951.77
2019-01-05T14:35:57.122Z,96949.25
2019-01-05T14:38:44.646Z,96952.87
2019-01-05T14:41:32.204Z,96966.87
2019-01-05T14:49:44.248Z,96927.00
2019-01-05T14:55:21.102Z,96932.15
2019-01-05T14:58:08.626Z,96948.73
2019-01-05T15:08:49.334Z,96954.72
2019-01-05T15:14:26.055Z,96963.38
2019-01-05T15:17:13.572Z,96959.23
2019-01-05T15:25:15.303Z,96956.84
2019-01-05T15:30:51.932Z,97009.56
2019-01-05T15:33:39.459Z,96999.42
2019-01-05T15:39:05.861Z,96994.84
2019-01-05T15:41:53.381Z,97011.61
2019-01-05T15:44:41.225Z,97004.92
2019-01-05T15:47:28.763Z,97013.80
2019-01-05T15:50:16.398Z,97020.31
2019-01-05T15:53:03.921Z,97037.19
2019-01-05T15:55:51.467Z,97026.19
2019-01-05T15:58:39.002Z,97030.09
2019-01-05T16:01:26.767Z,97031.41
2019-01-05T16:04:14.291Z,97039.06
2019-01-05T16:07:02.085Z,97038.42
2019-01-05T16:09:49.608Z,97041.51
2019-01-05T16:15:12.464Z,97048.12
2019-01-05T16:20:49.312Z,97049.61
2019-01-05T16:23:37.773Z,97042.82
2019-01-05T16:26:26.380Z,97040.30
2019-01-05T16:29:14.737Z,97042.91
2019-01-05T16:32:03.408Z,97046.83
2019-01-05T16:34:50.944Z,97047.88
2019-01-05T16:37:38.698Z,97051.05
2019-01-05T16:40:45.541Z,97060.09
2019-01-05T16:43:33.248Z,97055.70
2019-01-05T16:46:20.766Z,97056.05
2019-01-05T16:49:08.398Z,97047.66
2019-01-05T16:51:55.926Z,97047.09
2019-01-05T16:54:43.468Z,97048.69
2019-01-05T16:57:30.998Z,97050.34
2019-01-05T17:00:18.810Z,97044.12
2019-01-05T17:03:06.355Z,97064.52
2019-01-05T17:05:53.999Z,97049.21
2019-01-05T17:08:41.520Z,97048.38
2019-01-05T17:11:29.320Z,97058.83
2019-01-05T17:14:16.842Z,97051.37
2019-01-05T17:17:04.437Z,97054.34
2019-01-05T17:19:51.955Z,97055.08
2019-01-05T17:22:39.573Z,97063.30
2019-01-05T17:25:27.164Z,97054.16
2019-01-05T17:28:14.803Z,97061.03
2019-01-05T17:31:02.328Z,97063.20
2019-01-05T17:34:10.672Z,97064.95
2019-01-05T17:36:58.191Z,97066.73
2019-01-05T17:39:45.862Z,97072.43
2019-01-05T17:42:33.375Z,97077.66
2019-01-05T17:48:00.110Z,97075.78
2019-01-05T17:50:47.621Z,97075.69
2019-01-05T17:53:35.272Z,97076.87
2019-01-05T17:56:35.036Z,97086.48
2019-01-05T17:59:22.777Z,97087.70
2019-01-05T18:02:10.305Z,97093.30
2019-01-05T18:04:57.988Z,97093.66
2019-01-05T18:07:45.575Z,97094.04
2019-01-05T18:13:11.916Z,97092.52
2019-01-05T18:15:59.440Z,97103.25
2019-01-05T18:18:47.069Z,97094.95
2019-01-05T18:21:34.611Z,97104.82
2019-01-05T18:24:22.385Z,97118.70
2019-01-05T18:29:59.081Z,97107.95
2019-01-05T18:33:07.391Z,97106.11
2019-01-05T18:38:30.155Z,97100.67
2019-01-05T18:41:17.665Z,97101.62
2019-01-05T18:44:05.282Z,97105.98
2019-01-05T18:46:52.813Z,97097.33
2019-01-05T18:49:40.356Z,97107.42
2019-01-05T18:52:27.917Z,97096.11
2019-01-05T18:55:15.548Z,97099.94
2019-01-05T18:58:03.101Z,97106.47
2019-01-05T19:00:50.820Z,97105.98
2019-01-05T19:06:27.514Z,97099.46
2019-01-05T19:09:15.039Z,97095.45
2019-01-05T19:12:08.545Z,97099.37
2019-01-05T19:14:51.997Z,97101.06
2019-01-05T19:17:39.863Z,97104.59
2019-01-05T19:20:48.196Z,97108.16
2019-01-05T19:26:11.478Z,97116.44
2019-01-05T19:28:59.022Z,97120.83
2019-01-05T19:34:25.626Z,97118.48
2019-01-05T19:37:13.146Z,97118.39
2019-01-05T19:42:39.860Z,97124.73
2019-01-05T19:45:48.180Z,97126.39
2019-01-05T19:48:35.721Z,97120.34
2019-01-05T19:51:23.242Z,97122.47
2019-01-05T19:54:11.029Z,97122.86
2019-01-05T19:56:58.541Z,97124.73
2019-01-05T19:59:46.321Z,97117.91
2019-01-05T20:05:23.253Z,97109.55
2019-01-05T20:08:10.780Z,97100.89
2019-01-05T20:10:58.363Z,97111.69
2019-01-05T20:13:45.895Z,97105.73
2019-01-05T20:16:33.673Z,97110.86
2019-01-05T20:19:21.197Z,97108.16
2019-01-05T20:22:08.865Z,97112.08
2019-01-05T20:25:15.642Z,97114.69
2019-01-05T20:30:38.779Z,97111.86
2019-01-05T20:33:26.302Z,97110.94
2019-01-05T20:36:14.100Z,97111.67
2019-01-05T20:39:01.622Z,97111.28
2019-01-05T20:41:49.269Z,97114.19
2019-01-05T20:44:36.789Z,97109.32
2019-01-05T20:50:00.267Z,97108.66
2019-01-05T20:52:47.770Z,97108.66
2019-01-05T20:55:35.344Z,97122.07
2019-01-05T20:58:22.867Z,97111.63
2019-01-05T21:01:10.495Z,97100.73
2019-01-05T21:03:58.016Z,97112.01
2019-01-05T21:06:45.629Z,97105.86
2019-01-05T21:09:33.149Z,97108.00
2019-01-05T21:14:56.313Z,97100.52
2019-01-05T21:20:33.278Z,97100.06
2019-01-05T21:23:20.799Z,97095.20
2019-01-05T21:26:08.523Z,97095.20
2019-01-05T21:32:04.445Z,97092.02
2019-01-05T21:34:51.971Z,97084.17
2019-01-05T21:37:39.529Z,97088.09
2019-01-05T21:40:47.847Z,97077.30
2019-01-05T21:43:35.640Z,97088.92
2019-01-05T21:46:23.257Z,97096.66
2019-01-05T21:49:10.869Z,97098.36
2019-01-05T21:51:58.387Z,97080.07
2019-01-05T21:54:46.021Z,97080.99
2019-01-05T21:57:33.553Z,97077.08
2019-01-05T22:00:21.231Z,97066.17
2019-01-05T22:06:18.733Z,97075.20
2019-01-05T22:09:06.245Z,97075.20
2019-01-05T22:14:33.981Z,97066.53
2019-01-05T22:17:22.264Z,97083.03
2019-01-05T22:20:10.049Z,97075.67
2019-01-05T22:22:57.569Z,97064.30
2019-01-05T22:28:24.003Z,97088.64
2019-01-05T22:31:11.519Z,97084.72
2019-01-05T22:33:59.105Z,97088.64
2019-01-05T22:36:46.632Z,97084.25
2019-01-05T22:39:34.198Z,97087.34
2019-01-05T22:45:10.906Z,97074.75
2019-01-05T22:51:06.520Z,97076.98
2019-01-05T22:56:43.383Z,97078.77
2019-01-05T22:59:30.909Z,97072.58
2019-01-05T23:07:32.995Z,97063.66
2019-01-05T23:10:20.543Z,97060.66
2019-01-05T23:13:08.095Z,97063.85
2019-01-05T23:15:55.619Z,97068.16
2019-01-05T23:18:43.245Z,97056.02
2019-01-05T23:26:55.087Z,97077.48
2019-01-05T23:29:42.610Z,97067.52
2019-01-05T23:32:30.251Z,97069.30
2019-01-05T23:35:17.767Z,97064.52
2019-01-05T23:38:05.568Z,97065.47
2019-01-05T23:40:53.086Z,97077.31
2019-01-05T23:46:16.084Z,97070.88
2019-01-05T23:49:03.610Z,97063.14
2019-01-05T23:51:51.262Z,97063.71
2019-01-05T23:54:38.794Z,97073.80
2019-01-05T23:57:26.668Z,97075.68
